Time;durP1;ratioP1;P1;durP2;ratioP2;P2;SDS_P1;SDS_P2;PMS_P1;PMS_P2;Temp;Humidity;BMP_temperature;BMP_pressure;BME280_temperature;BME280_humidity;BME280_pressure;Samples;Min_cycle;Max_cycle;Signal;HPM_P1;HPM_P2
2022/05/23 00:02:19;;;;;;;2.20;1.02;;;16.10;99.90;;;;;;5083719;28;20199;-82
2022/05/23 00:04:50;;;;;;;3.78;0.90;;;16.20;99.90;;;;;;5081451;28;20222;-84
2022/05/23 00:07:30;;;;;;;2.83;0.90;;;16.30;99.90;;;;;;5086512;28;20202;-83
2022/05/23 00:10:01;;;;;;;1.75;0.68;;;16.40;99.90;;;;;;5081570;28;20623;-82
2022/05/23 00:12:33;;;;;;;1.85;0.82;;;16.50;99.90;;;;;;5086955;28;20200;-82
2022/05/23 00:15:04;;;;;;;3.83;0.80;;;16.50;99.90;;;;;;5084524;28;20195;-82
2022/05/23 00:17:35;;;;;;;5.15;1.20;;;16.40;99.90;;;;;;5082758;28;20226;-83
2022/05/23 00:20:07;;;;;;;1.58;0.90;;;16.40;99.90;;;;;;5080569;28;20202;-81
2022/05/23 00:22:38;;;;;;;3.78;1.08;;;16.30;99.90;;;;;;5080309;28;20198;-82
2022/05/23 00:25:09;;;;;;;2.20;0.70;;;16.20;99.90;;;;;;5081194;28;20199;-81
2022/05/23 00:27:43;;;;;;;1.60;0.63;;;16.20;99.90;;;;;;5080409;28;20494;-81
2022/05/23 00:30:17;;;;;;;2.08;0.60;;;16.10;99.90;;;;;;5079859;28;20941;-83
2022/05/23 00:35:38;;;;;;;1.50;0.75;;;16.00;99.90;;;;;;5083660;28;20234;-81
2022/05/23 00:38:08;;;;;;;1.98;0.70;;;15.90;99.90;;;;;;5079280;28;20744;-81
2022/05/23 00:40:42;;;;;;;1.00;0.50;;;15.90;99.90;;;;;;5079254;28;20222;-81
2022/05/23 00:43:19;;;;;;;1.20;0.60;;;15.80;99.90;;;;;;5086082;28;20194;-81
2022/05/23 00:45:53;;;;;;;1.10;0.47;;;15.80;99.90;;;;;;5081281;28;20205;-82
2022/05/23 00:48:27;;;;;;;1.98;0.50;;;15.80;99.90;;;;;;5084336;28;20203;-85
2022/05/23 00:51:02;;;;;;;1.65;0.73;;;15.80;99.90;;;;;;5083680;28;20202;-84
2022/05/23 00:53:34;;;;;;;1.52;0.88;;;15.60;99.90;;;;;;5083934;28;20222;-84
2022/05/23 00:56:07;;;;;;;2.55;0.70;;;15.50;99.90;;;;;;5085681;28;20195;-85
2022/05/23 00:58:44;;;;;;;2.67;1.00;;;15.50;99.90;;;;;;5087643;28;20809;-85
2022/05/23 01:01:22;;;;;;;3.30;0.93;;;15.50;99.90;;;;;;5085361;28;20205;-86
2022/05/23 01:03:55;;;;;;;1.15;0.50;;;15.60;99.90;;;;;;5095148;28;20210;-87
2022/05/23 01:06:26;;;;;;;1.42;0.80;;;15.70;99.90;;;;;;5090621;28;20199;-88
2022/05/23 01:08:58;;;;;;;3.50;1.40;;;15.80;99.90;;;;;;5090826;28;20188;-86
2022/05/23 01:11:30;;;;;;;2.92;1.40;;;15.80;99.90;;;;;;5092495;28;20190;-88
2022/05/23 01:14:02;;;;;;;4.25;1.48;;;16.00;99.90;;;;;;5092434;28;20187;-89
2022/05/23 01:16:33;;;;;;;3.92;1.60;;;16.10;99.90;;;;;;5093134;28;20226;-90
2022/05/23 01:19:03;;;;;;;4.43;1.63;;;16.10;99.90;;;;;;5095957;27;20187;-89
2022/05/23 01:21:44;;;;;;;4.55;1.20;;;16.30;99.90;;;;;;5092427;27;20226;-83
2022/05/23 01:24:22;;;;;;;2.30;0.90;;;16.40;99.90;;;;;;5088415;27;20206;-84
2022/05/23 01:26:56;;;;;;;2.47;0.90;;;16.40;99.90;;;;;;5094639;27;20230;-91
2022/05/23 01:29:30;;;;;;;2.03;1.10;;;16.50;99.90;;;;;;5111977;28;20217;-94
2022/05/23 01:32:01;;;;;;;2.60;1.02;;;16.60;99.90;;;;;;5111894;28;22960;-91
2022/05/23 01:34:32;;;;;;;3.70;1.23;;;16.70;99.90;;;;;;5102927;27;20201;-90
2022/05/23 01:37:03;;;;;;;1.38;0.80;;;16.70;99.90;;;;;;5099975;27;20588;-90
2022/05/23 01:39:35;;;;;;;2.58;1.00;;;16.80;99.90;;;;;;5095565;27;20244;-90
2022/05/23 01:42:09;;;;;;;4.88;1.20;;;16.80;99.90;;;;;;5099647;28;20191;-89
2022/05/23 01:44:39;;;;;;;2.97;1.20;;;16.90;99.90;;;;;;5098083;28;20211;-91
2022/05/23 01:47:15;;;;;;;2.55;1.10;;;16.90;99.90;;;;;;5098136;28;20206;-90
2022/05/23 01:49:46;;;;;;;3.28;1.10;;;17.00;99.90;;;;;;5112407;28;20194;-93
2022/05/23 01:52:16;;;;;;;3.05;0.90;;;17.00;99.90;;;;;;5112670;28;20199;-91
2022/05/23 01:54:47;;;;;;;1.98;0.80;;;16.90;99.90;;;;;;5112320;28;20259;-91
2022/05/23 01:57:20;;;;;;;1.27;0.70;;;16.80;99.90;;;;;;5110536;27;20608;-91
2022/05/23 02:02:37;;;;;;;1.08;0.57;;;16.80;99.90;;;;;;5109547;28;20209;-90
2022/05/23 02:05:08;;;;;;;2.92;0.90;;;16.90;99.90;;;;;;5111479;27;20583;-92
2022/05/23 02:07:38;;;;;;;3.35;0.60;;;16.80;99.90;;;;;;5109745;28;20274;-92
2022/05/23 02:10:10;;;;;;;2.30;0.73;;;16.80;99.90;;;;;;5118678;27;20191;-91
2022/05/23 02:12:44;;;;;;;3.35;0.80;;;16.80;99.90;;;;;;5111124;28;20183;-85
2022/05/23 02:15:15;;;;;;;1.80;0.70;;;16.70;99.90;;;;;;5114821;28;20223;-91
2022/05/23 02:17:46;;;;;;;1.58;0.73;;;16.70;99.90;;;;;;5112459;28;21127;-92
2022/05/23 02:20:17;;;;;;;3.45;0.90;;;16.70;99.90;;;;;;5107616;27;20221;-92
2022/05/23 02:22:47;;;;;;;4.93;1.15;;;16.70;99.90;;;;;;5113172;28;20189;-93
2022/05/23 02:25:18;;;;;;;3.65;1.20;;;16.70;99.90;;;;;;5113780;28;20206;-92
2022/05/23 02:27:51;;;;;;;2.80;1.10;;;16.70;99.90;;;;;;5113962;27;20195;-93
2022/05/23 02:30:24;;;;;;;3.45;1.10;;;16.70;99.90;;;;;;5116519;27;20217;-91
2022/05/23 02:32:56;;;;;;;2.47;0.93;;;16.80;99.90;;;;;;5118681;28;20190;-91
2022/05/23 02:35:27;;;;;;;3.75;1.23;;;16.80;99.90;;;;;;5113570;28;20198;-92
2022/05/23 02:37:57;;;;;;;3.25;1.20;;;16.80;99.90;;;;;;5114876;27;20886;-90
2022/05/23 02:40:29;;;;;;;2.22;0.80;;;16.80;99.90;;;;;;5114091;28;20194;-91
2022/05/23 02:43:05;;;;;;;3.58;0.90;;;16.80;99.90;;;;;;5114035;28;20194;-92
2022/05/23 02:45:36;;;;;;;2.17;0.75;;;16.80;99.90;;;;;;5112789;28;20190;-90
2022/05/23 02:48:08;;;;;;;4.65;1.15;;;16.80;99.90;;;;;;5122045;28;20198;-90
2022/05/23 02:50:38;;;;;;;2.85;0.90;;;16.90;99.90;;;;;;5113896;28;20567;-91
2022/05/23 02:53:09;;;;;;;3.35;0.80;;;16.90;99.90;;;;;;5114194;28;20745;-91
2022/05/23 02:55:40;;;;;;;4.45;0.95;;;16.90;99.90;;;;;;5102998;28;20331;-92
2022/05/23 02:58:13;;;;;;;3.58;0.63;;;16.90;99.90;;;;;;5117632;28;20230;-92
2022/05/23 03:00:44;;;;;;;3.13;0.98;;;16.90;99.90;;;;;;5113742;28;20778;-91
2022/05/23 03:03:13;;;;;;;4.05;0.95;;;16.90;99.90;;;;;;5114827;28;20190;-91
2022/05/23 03:05:46;;;;;;;4.50;0.90;;;17.00;99.90;;;;;;5114665;28;20199;-88
2022/05/23 03:08:19;;;;;;;4.25;0.85;;;17.00;99.90;;;;;;5115287;28;20195;-89
2022/05/23 03:10:51;;;;;;;3.03;0.50;;;17.00;99.90;;;;;;5108667;28;20212;-90
2022/05/23 03:13:24;;;;;;;3.30;0.80;;;17.00;99.90;;;;;;5114065;28;20231;-93
2022/05/23 03:15:54;;;;;;;4.20;1.00;;;17.00;99.90;;;;;;5115808;28;20679;-92
2022/05/23 03:18:26;;;;;;;4.07;1.00;;;17.00;99.90;;;;;;5114100;28;20283;-89
2022/05/23 03:21:02;;;;;;;6.22;1.15;;;17.00;99.90;;;;;;5111676;28;20742;-90
2022/05/23 03:29:11;;;;;;;3.05;0.80;;;17.00;99.90;;;;;;5108362;28;20244;-87
2022/05/23 03:31:43;;;;;;;4.57;0.80;;;17.10;99.90;;;;;;5111509;28;20201;-86
2022/05/23 03:34:14;;;;;;;3.78;1.05;;;17.00;99.90;;;;;;5107986;28;20247;-90
2022/05/23 03:36:45;;;;;;;4.15;0.90;;;17.10;99.90;;;;;;5108123;28;20251;-92
2022/05/23 03:39:15;;;;;;;3.75;0.93;;;17.10;99.90;;;;;;5111691;27;20240;-90
2022/05/23 03:41:46;;;;;;;3.35;1.00;;;17.10;99.90;;;;;;5110916;28;20260;-89
2022/05/23 03:44:18;;;;;;;4.85;1.20;;;17.10;99.90;;;;;;5107526;28;20205;-90
2022/05/23 03:46:49;;;;;;;3.17;0.93;;;17.00;99.90;;;;;;5107066;28;20191;-89
2022/05/23 03:49:20;;;;;;;4.78;1.10;;;17.00;99.90;;;;;;5110793;28;20619;-90
2022/05/23 03:51:50;;;;;;;2.25;0.70;;;17.00;99.90;;;;;;5110707;28;20206;-90
2022/05/23 03:54:21;;;;;;;2.58;0.73;;;17.00;99.90;;;;;;5108188;28;20618;-89
2022/05/23 03:56:52;;;;;;;2.67;0.80;;;17.00;99.90;;;;;;5111794;28;20197;-85
2022/05/23 03:59:25;;;;;;;4.38;0.88;;;17.00;99.90;;;;;;5107600;28;20297;-90
2022/05/23 04:01:57;;;;;;;3.58;1.08;;;17.00;99.90;;;;;;5109838;28;20565;-88
2022/05/23 04:04:29;;;;;;;4.13;0.70;;;17.00;99.90;;;;;;5110023;28;20736;-89
2022/05/23 04:07:03;;;;;;;2.58;0.60;;;17.00;99.90;;;;;;5110263;28;20546;-91
2022/05/23 04:09:34;;;;;;;2.80;0.80;;;17.00;99.90;;;;;;5108049;28;20194;-90
2022/05/23 04:12:05;;;;;;;2.05;0.45;;;17.00;99.90;;;;;;5107914;28;20248;-90
2022/05/23 04:14:37;;;;;;;3.25;0.52;;;16.90;99.90;;;;;;5106357;28;20258;-90
2022/05/23 04:17:09;;;;;;;0.80;0.35;;;16.80;99.90;;;;;;5107536;28;20857;-90
2022/05/23 04:19:39;;;;;;;2.42;0.50;;;16.70;99.90;;;;;;5106132;28;20194;-90
2022/05/23 04:22:10;;;;;;;4.05;0.50;;;16.80;99.90;;;;;;5105204;28;20190;-90
2022/05/23 04:24:42;;;;;;;3.22;0.40;;;16.70;99.90;;;;;;5112639;28;20653;-91
2022/05/23 04:27:13;;;;;;;2.55;0.55;;;16.70;99.90;;;;;;5103983;28;20289;-92
2022/05/23 04:29:45;;;;;;;3.95;0.60;;;16.70;99.90;;;;;;5106208;28;20647;-90
2022/05/23 04:35:15;;;;;;;2.33;0.43;;;16.70;99.90;;;;;;5102081;28;20202;-82
2022/05/23 04:37:48;;;;;;;4.43;0.93;;;16.80;99.90;;;;;;5103318;28;20677;-88
2022/05/23 04:40:20;;;;;;;4.70;1.10;;;16.80;99.90;;;;;;5105739;28;20624;-87
2022/05/23 04:42:51;;;;;;;7.75;1.10;;;16.90;99.90;;;;;;5106695;28;20738;-89
2022/05/23 04:45:24;;;;;;;4.75;1.20;;;17.00;99.90;;;;;;5105270;28;20191;-91
2022/05/23 04:50:41;;;;;;;4.78;1.25;;;17.00;99.90;;;;;;5110789;27;20206;-85
2022/05/23 04:53:12;;;;;;;4.15;0.98;;;17.00;99.90;;;;;;5117358;28;20213;-84
2022/05/23 04:55:43;;;;;;;5.78;1.20;;;17.10;99.90;;;;;;5120537;27;21119;-83
2022/05/23 04:58:15;;;;;;;3.92;1.00;;;17.10;99.90;;;;;;5112513;27;20283;-86
2022/05/23 05:00:49;;;;;;;3.17;0.98;;;17.10;99.90;;;;;;5111708;28;20238;-85
2022/05/23 05:03:21;;;;;;;3.42;0.80;;;17.20;99.90;;;;;;5109548;27;20198;-86
2022/05/23 05:05:52;;;;;;;2.05;0.75;;;17.20;99.90;;;;;;5108777;28;20197;-90
2022/05/23 05:08:23;;;;;;;2.90;0.98;;;17.20;99.90;;;;;;5111022;28;20187;-85
2022/05/23 05:10:54;;;;;;;2.47;0.70;;;17.20;99.90;;;;;;5109235;28;20198;-86
2022/05/23 05:13:25;;;;;;;4.68;0.63;;;17.20;99.90;;;;;;5109785;27;20191;-87
2022/05/23 05:16:02;;;;;;;1.80;0.63;;;17.20;99.90;;;;;;5109410;27;20190;-86
2022/05/23 05:18:34;;;;;;;2.45;0.90;;;17.20;99.90;;;;;;5108988;27;20214;-87
2022/05/23 05:21:07;;;;;;;1.90;0.70;;;17.20;99.90;;;;;;5105592;28;20202;-86
2022/05/23 05:23:38;;;;;;;1.13;0.50;;;17.10;99.90;;;;;;5108814;28;20182;-87
2022/05/23 05:26:09;;;;;;;2.78;0.80;;;17.10;99.90;;;;;;5108972;28;20227;-89
2022/05/23 05:28:39;;;;;;;1.65;0.50;;;17.00;99.90;;;;;;5107823;28;20198;-87
2022/05/23 05:31:20;;;;;;;3.35;0.70;;;17.00;99.90;;;;;;5108190;28;20669;-85
2022/05/23 05:33:59;;;;;;;3.00;0.80;;;16.90;99.90;;;;;;5106942;28;20657;-88
2022/05/23 05:36:40;;;;;;;2.80;0.52;;;16.90;99.90;;;;;;5107146;27;20190;-85
2022/05/23 05:39:12;;;;;;;4.00;0.75;;;16.90;99.90;;;;;;5107017;27;20225;-86
2022/05/23 05:41:46;;;;;;;2.47;0.70;;;16.90;99.90;;;;;;5106962;27;20195;-86
2022/05/23 05:44:20;;;;;;;2.35;0.70;;;16.90;99.90;;;;;;5105333;28;20269;-85
2022/05/23 05:46:57;;;;;;;2.10;0.68;;;16.80;99.90;;;;;;5106484;27;20195;-88
2022/05/23 05:49:30;;;;;;;2.28;0.65;;;16.80;99.90;;;;;;5105711;27;20661;-87
2022/05/23 05:52:03;;;;;;;2.25;0.70;;;16.80;99.90;;;;;;5108386;28;20240;-88
2022/05/23 05:54:36;;;;;;;2.38;0.65;;;16.70;99.90;;;;;;5107013;27;20282;-86
2022/05/23 05:57:09;;;;;;;2.67;0.70;;;16.60;99.90;;;;;;5106703;28;20199;-88
2022/05/23 05:59:40;;;;;;;2.85;0.68;;;16.60;99.90;;;;;;5107820;28;20316;-89
2022/05/23 06:02:13;;;;;;;2.33;0.63;;;16.60;99.90;;;;;;5104676;28;20191;-86
2022/05/23 06:04:44;;;;;;;1.67;0.73;;;16.50;99.90;;;;;;5103559;27;20194;-85
2022/05/23 06:12:56;;;;;;;2.42;0.70;;;16.40;99.90;;;;;;5110211;28;20190;-90
2022/05/23 06:15:30;;;;;;;1.48;0.80;;;16.30;99.90;;;;;;5108259;28;20183;-88
2022/05/23 06:18:03;;;;;;;2.65;0.70;;;16.30;99.90;;;;;;5106036;28;20210;-91
2022/05/23 06:20:34;;;;;;;1.25;0.65;;;16.30;99.90;;;;;;5107737;27;20190;-90
2022/05/23 06:23:05;;;;;;;1.88;0.70;;;16.20;99.90;;;;;;5109728;28;20182;-88
2022/05/23 06:25:35;;;;;;;2.75;1.00;;;16.20;99.90;;;;;;5105055;28;20187;-89
2022/05/23 06:28:06;;;;;;;3.95;0.95;;;16.20;99.90;;;;;;5106134;28;20187;-89
2022/05/23 06:30:37;;;;;;;3.97;0.85;;;16.20;99.90;;;;;;5105728;28;20203;-88
2022/05/23 06:33:10;;;;;;;1.92;0.90;;;16.20;99.90;;;;;;5106241;28;20672;-91
2022/05/23 06:35:41;;;;;;;1.52;0.70;;;16.10;99.90;;;;;;5106923;28;20191;-90
2022/05/23 06:38:12;;;;;;;3.17;0.90;;;16.10;99.90;;;;;;5108259;27;20211;-87
2022/05/23 06:40:42;;;;;;;1.67;0.50;;;16.10;99.90;;;;;;5106283;28;20194;-88
2022/05/23 06:43:13;;;;;;;2.65;0.90;;;16.10;99.90;;;;;;5108051;27;20657;-90
2022/05/23 06:45:44;;;;;;;1.58;0.85;;;16.10;99.90;;;;;;5107138;28;20195;-91
2022/05/23 06:48:18;;;;;;;2.45;0.75;;;16.10;99.90;;;;;;5115549;27;20205;-89
2022/05/23 06:50:50;;;;;;;3.20;1.00;;;16.10;99.90;;;;;;5108054;28;21048;-88
2022/05/23 06:53:21;;;;;;;2.60;0.90;;;16.10;99.90;;;;;;5105340;28;20287;-88
2022/05/23 06:55:53;;;;;;;1.63;0.75;;;16.10;99.90;;;;;;5106592;28;20194;-85
2022/05/23 06:58:23;;;;;;;3.38;1.05;;;16.10;99.90;;;;;;5108057;27;20222;-87
2022/05/23 07:00:56;;;;;;;2.67;1.20;;;16.10;99.90;;;;;;5104214;28;20198;-88
2022/05/23 07:03:28;;;;;;;4.13;1.00;;;16.10;99.90;;;;;;5105585;28;20199;-89
2022/05/23 07:14:18;;;;;;;1.80;1.02;;;16.10;99.90;;;;;;5113183;27;20247;-91
2022/05/23 07:16:49;;;;;;;2.53;1.08;;;16.00;99.90;;;;;;5108511;28;20223;-89
2022/05/23 07:19:23;;;;;;;4.03;1.20;;;16.00;99.90;;;;;;5111360;27;20697;-87
2022/05/23 07:21:54;;;;;;;5.15;1.30;;;16.00;99.90;;;;;;5106511;28;20567;-87
2022/05/23 07:24:25;;;;;;;2.40;1.05;;;16.00;99.90;;;;;;5106326;27;20198;-87
2022/05/23 07:26:57;;;;;;;5.03;1.33;;;16.10;99.90;;;;;;5107946;28;20602;-91
2022/05/23 07:29:28;;;;;;;4.75;1.45;;;16.00;99.90;;;;;;5109935;28;20210;-92
2022/05/23 07:31:59;;;;;;;1.85;1.20;;;16.00;99.90;;;;;;5108627;28;20198;-90
2022/05/23 07:34:34;;;;;;;3.30;1.13;;;16.10;99.90;;;;;;5105444;27;20291;-88
2022/05/23 07:37:05;;;;;;;2.92;1.15;;;16.10;99.90;;;;;;5106513;28;20228;-88
2022/05/23 07:39:37;;;;;;;3.75;1.77;;;16.10;99.90;;;;;;5104762;28;20210;-88
2022/05/23 07:42:08;;;;;;;2.22;1.10;;;16.10;99.90;;;;;;5105077;27;20190;-88
2022/05/23 07:44:40;;;;;;;4.85;1.35;;;16.10;99.90;;;;;;5106767;28;20186;-89
2022/05/23 07:47:10;;;;;;;3.05;1.08;;;16.10;99.90;;;;;;5104468;27;20236;-85
2022/05/23 07:49:47;;;;;;;4.75;1.48;;;16.10;99.90;;;;;;5103173;28;20187;-88
2022/05/23 07:52:17;;;;;;;3.55;1.20;;;16.10;99.90;;;;;;5106469;28;20186;-87
2022/05/23 08:03:13;;;;;;;3.00;1.10;;;16.20;99.90;;;;;;5100955;28;20205;-89
2022/05/23 08:05:47;;;;;;;2.38;1.05;;;16.20;99.90;;;;;;5101743;28;20202;-89
2022/05/23 08:08:18;;;;;;;4.57;1.17;;;16.20;99.90;;;;;;5102913;28;20862;-87
2022/05/23 08:10:51;;;;;;;5.95;1.40;;;16.20;99.90;;;;;;5105657;28;20186;-88
2022/05/23 08:13:22;;;;;;;5.88;1.05;;;16.20;99.90;;;;;;5105197;28;20285;-87
2022/05/23 08:15:53;;;;;;;5.57;1.30;;;16.20;99.90;;;;;;5102752;28;20285;-88
2022/05/23 08:18:24;;;;;;;4.82;1.50;;;16.20;99.90;;;;;;5104768;28;20677;-88
2022/05/23 08:20:56;;;;;;;3.97;1.30;;;16.20;99.90;;;;;;5104665;28;20195;-88
2022/05/23 08:23:27;;;;;;;4.90;1.40;;;16.20;99.90;;;;;;5105068;28;20250;-86
2022/05/23 08:25:58;;;;;;;4.82;1.83;;;16.20;99.90;;;;;;5105248;28;20203;-87
2022/05/23 08:28:29;;;;;;;5.85;1.55;;;16.30;99.90;;;;;;5108310;28;20199;-88
2022/05/23 08:30:59;;;;;;;4.47;1.33;;;16.30;99.90;;;;;;5117651;28;20194;-86
2022/05/23 08:33:30;;;;;;;6.03;1.40;;;16.20;99.90;;;;;;5119184;28;20236;-93
2022/05/23 08:36:03;;;;;;;6.10;1.45;;;16.30;99.90;;;;;;5110130;28;20658;-89
2022/05/23 08:38:33;;;;;;;4.25;1.30;;;16.30;99.90;;;;;;5109471;28;20210;-88
2022/05/23 08:41:14;;;;;;;4.68;1.10;;;16.30;99.90;;;;;;5108641;28;20202;-90
2022/05/23 08:43:53;;;;;;;4.72;1.58;;;16.30;99.90;;;;;;5107757;28;20198;-88
2022/05/23 08:46:28;;;;;;;3.38;1.40;;;16.30;99.90;;;;;;5108645;27;20194;-87
2022/05/23 08:49:07;;;;;;;4.78;1.58;;;16.30;99.90;;;;;;5108423;28;20627;-86
2022/05/23 08:51:47;;;;;;;3.83;1.40;;;16.30;99.90;;;;;;5105637;28;20187;-88
2022/05/23 08:54:23;;;;;;;2.72;1.05;;;16.30;99.90;;;;;;5107232;28;20339;-87
2022/05/23 08:56:56;;;;;;;4.68;1.40;;;16.30;99.90;;;;;;5107103;28;20737;-90
2022/05/23 08:59:32;;;;;;;6.00;1.35;;;16.30;99.90;;;;;;5108782;28;20242;-89
2022/05/23 09:02:06;;;;;;;3.00;1.40;;;16.40;99.90;;;;;;5110776;27;20194;-91
2022/05/23 09:04:46;;;;;;;5.82;1.40;;;16.30;99.90;;;;;;5107897;28;20611;-85
2022/05/23 09:07:33;;;;;;;5.38;1.50;;;16.40;99.90;;;;;;5100947;27;20186;-81
2022/05/23 09:10:08;;;;;;;5.28;1.65;;;16.40;99.90;;;;;;5106004;27;20730;-83
2022/05/23 09:12:39;;;;;;;4.50;1.48;;;16.40;99.90;;;;;;5106843;28;20200;-81
2022/05/23 09:15:10;;;;;;;5.57;1.50;;;16.40;99.90;;;;;;5111349;27;20190;-82
2022/05/23 09:17:46;;;;;;;5.55;1.60;;;16.40;99.90;;;;;;5105315;28;20209;-81
2022/05/23 09:20:21;;;;;;;4.95;1.58;;;16.40;99.90;;;;;;5106396;27;20221;-82
2022/05/23 09:22:56;;;;;;;4.15;1.70;;;16.40;99.90;;;;;;5102097;27;20199;-80
2022/05/23 09:25:28;;;;;;;4.47;1.48;;;16.40;99.90;;;;;;5105531;27;20202;-83
2022/05/23 09:28:25;;;;;;;5.03;1.80;;;16.40;99.90;;;;;;5101821;27;20685;-84
2022/05/23 09:31:01;;;;;;;4.75;1.65;;;16.40;99.90;;;;;;5107982;27;20232;-83
2022/05/23 09:33:33;;;;;;;6.25;2.22;;;16.40;99.90;;;;;;5107209;28;20198;-83
2022/05/23 09:36:16;;;;;;;5.18;2.05;;;16.40;99.90;;;;;;5104972;27;20191;-84
2022/05/23 09:38:57;;;;;;;7.25;2.72;;;16.40;99.90;;;;;;5105362;27;20726;-83
2022/05/23 09:49:58;;;;;;;4.47;2.25;;;16.40;99.90;;;;;;5107850;28;20190;-82
2022/05/23 09:52:31;;;;;;;5.60;2.30;;;16.40;99.90;;;;;;5108537;27;20202;-81
2022/05/23 09:55:06;;;;;;;7.43;2.33;;;16.40;99.90;;;;;;5104446;27;20197;-81
2022/05/23 09:57:40;;;;;;;4.43;2.15;;;16.40;99.90;;;;;;5106046;27;20202;-82
2022/05/23 10:07:36;;;;;;;5.50;2.53;;;16.30;99.90;;;;;;5102531;28;21273;-82
2022/05/23 10:10:10;;;;;;;4.68;2.35;;;16.30;99.90;;;;;;5103551;27;20187;-81
2022/05/23 10:12:42;;;;;;;4.30;1.83;;;16.30;99.90;;;;;;5103600;27;20194;-82
2022/05/23 10:15:22;;;;;;;5.10;1.70;;;16.30;99.90;;;;;;5104097;27;20203;-81
2022/05/23 10:18:04;;;;;;;4.18;1.88;;;16.30;99.90;;;;;;5104518;28;20214;-80
2022/05/23 10:20:40;;;;;;;4.38;1.90;;;16.30;99.90;;;;;;5103482;27;20597;-80
2022/05/23 10:23:18;;;;;;;3.95;2.00;;;16.30;99.90;;;;;;5102994;27;20704;-79
2022/05/23 10:26:01;;;;;;;5.72;1.95;;;16.30;99.90;;;;;;5102361;27;20230;-80
2022/05/23 10:28:38;;;;;;;4.20;1.95;;;16.30;99.90;;;;;;5103348;27;20186;-82
2022/05/23 10:31:14;;;;;;;3.67;1.58;;;16.30;99.90;;;;;;5103889;27;20321;-81
2022/05/23 10:33:47;;;;;;;3.38;1.52;;;16.30;99.90;;;;;;5101591;28;20230;-81
2022/05/23 10:36:22;;;;;;;3.75;1.50;;;16.30;99.90;;;;;;5099184;28;20693;-83
2022/05/23 10:45:01;;;;;;;4.85;1.80;;;16.20;99.90;;;;;;5105341;27;20209;-82
2022/05/23 10:47:42;;;;;;;4.22;1.48;;;16.20;99.90;;;;;;5099557;27;20187;-81
2022/05/23 10:50:21;;;;;;;3.90;1.65;;;16.20;99.90;;;;;;5100095;27;20194;-83
2022/05/23 10:53:01;;;;;;;2.25;1.38;;;16.20;99.90;;;;;;5099501;28;20562;-81
2022/05/23 10:55:36;;;;;;;3.03;1.20;;;16.20;99.90;;;;;;5099204;27;20198;-82
2022/05/23 10:58:19;;;;;;;3.13;1.30;;;16.20;99.90;;;;;;5103332;27;20573;-80
2022/05/23 11:00:57;;;;;;;1.95;1.17;;;16.20;99.90;;;;;;5105555;27;20222;-81
2022/05/23 11:03:35;;;;;;;2.78;1.45;;;16.20;99.90;;;;;;5101371;27;20233;-81
2022/05/23 11:06:16;;;;;;;4.53;1.65;;;16.20;99.90;;;;;;5101226;28;20672;-80
2022/05/23 11:08:59;;;;;;;3.28;1.40;;;16.20;99.90;;;;;;5100706;27;20198;-83
2022/05/23 11:11:51;;;;;;;1.85;1.13;;;16.20;99.90;;;;;;5101976;28;20239;-83
2022/05/23 11:14:32;;;;;;;3.65;1.60;;;16.20;99.90;;;;;;5100697;28;20568;-81
2022/05/23 11:17:15;;;;;;;7.53;2.35;;;16.20;99.90;;;;;;5101478;27;20214;-81
2022/05/23 11:19:59;;;;;;;4.75;2.40;;;16.20;99.90;;;;;;5102087;28;20228;-79
2022/05/23 11:22:35;;;;;;;4.53;2.05;;;16.20;99.90;;;;;;5097188;27;20545;-81
2022/05/23 11:25:16;;;;;;;3.90;1.88;;;16.20;99.90;;;;;;5101661;27;20244;-77
2022/05/23 11:36:32;;;;;;;2.88;1.60;;;16.10;99.90;;;;;;5101757;27;20309;-78
2022/05/23 11:39:03;;;;;;;4.22;1.50;;;16.10;99.90;;;;;;5098705;28;20210;-76
2022/05/23 11:41:41;;;;;;;3.90;1.60;;;16.10;99.90;;;;;;5100748;27;21716;-77
2022/05/23 11:44:49;;;;;;;3.55;1.90;;;16.10;99.90;;;;;;5097932;28;20392;-76
2022/05/23 11:47:25;;;;;;;3.75;1.60;;;16.10;99.90;;;;;;5101402;28;20186;-77
2022/05/23 11:50:21;;;;;;;3.60;1.50;;;16.10;99.90;;;;;;5100710;27;20623;-79
2022/05/23 11:53:04;;;;;;;5.05;1.60;;;16.10;99.90;;;;;;5106989;27;20229;-77
2022/05/23 11:56:07;;;;;;;4.05;1.58;;;16.00;99.90;;;;;;5102630;28;20256;-77
2022/05/23 11:58:47;;;;;;;4.07;1.40;;;16.00;99.90;;;;;;5098256;27;20620;-77
2022/05/23 12:01:29;;;;;;;2.75;1.50;;;16.00;99.90;;;;;;5098270;28;20217;-77
2022/05/23 12:04:21;;;;;;;4.15;1.50;;;16.00;99.90;;;;;;5098859;28;20230;-78
2022/05/23 12:06:52;;;;;;;5.50;1.75;;;16.00;99.90;;;;;;5100601;28;20760;-78
2022/05/23 12:09:39;;;;;;;4.47;1.55;;;16.00;99.90;;;;;;5100466;28;20194;-78
2022/05/23 12:12:47;;;;;;;6.80;1.70;;;16.00;99.90;;;;;;5099223;28;20210;-76
2022/05/23 12:15:52;;;;;;;4.93;1.58;;;16.00;99.90;;;;;;5101216;28;20186;-76
2022/05/23 12:18:38;;;;;;;6.88;1.70;;;16.00;99.90;;;;;;5098898;28;20194;-76
2022/05/23 12:21:42;;;;;;;5.13;1.75;;;16.00;99.90;;;;;;5103379;28;20226;-76
2022/05/23 12:24:27;;;;;;;5.55;1.92;;;15.90;99.90;;;;;;5102037;28;20194;-77
2022/05/23 12:26:59;;;;;;;4.80;1.90;;;15.90;99.90;;;;;;5100348;27;20190;-79
2022/05/23 12:29:35;;;;;;;5.70;1.90;;;15.90;99.90;;;;;;5100136;28;20218;-79
2022/05/23 12:32:24;;;;;;;4.43;2.53;;;15.90;99.90;;;;;;5097756;28;20594;-79
2022/05/23 12:34:58;;;;;;;4.45;1.70;;;15.90;99.90;;;;;;5100533;28;20203;-82
2022/05/23 12:37:36;;;;;;;2.72;1.70;;;15.90;99.90;;;;;;5100071;28;20191;-79
2022/05/23 12:40:20;;;;;;;4.63;1.80;;;15.90;99.90;;;;;;5098804;28;20865;-79
2022/05/23 12:43:15;;;;;;;4.68;1.50;;;15.90;99.90;;;;;;5100958;28;20241;-79
2022/05/23 12:46:09;;;;;;;4.03;1.52;;;15.90;99.90;;;;;;5098395;28;20744;-79
2022/05/23 12:48:56;;;;;;;3.05;1.60;;;15.80;99.90;;;;;;5097780;27;20236;-78
2022/05/23 12:52:02;;;;;;;4.53;1.58;;;15.80;99.90;;;;;;5098279;28;20255;-79
2022/05/23 12:54:55;;;;;;;5.15;1.80;;;15.80;99.90;;;;;;5100928;28;20277;-78
2022/05/23 12:57:47;;;;;;;3.08;1.77;;;15.80;99.90;;;;;;5098412;28;20195;-79
2022/05/23 13:00:22;;;;;;;5.05;2.00;;;15.70;99.90;;;;;;5083788;28;20258;-78
2022/05/23 13:03:01;;;;;;;4.97;1.70;;;15.70;99.90;;;;;;5101870;28;20225;-79
2022/05/23 13:05:38;;;;;;;3.88;1.95;;;15.60;99.90;;;;;;5099203;28;20195;-79
2022/05/23 13:08:15;;;;;;;3.88;1.70;;;15.60;99.90;;;;;;5099810;28;20295;-82
2022/05/23 13:10:50;;;;;;;3.72;2.00;;;15.60;99.90;;;;;;5103188;28;20553;-80
2022/05/23 13:13:29;;;;;;;2.83;1.77;;;15.60;99.90;;;;;;5104685;27;20190;-80
2022/05/23 13:16:15;;;;;;;2.97;1.92;;;15.60;99.90;;;;;;5103250;27;20198;-79
2022/05/23 13:27:08;;;;;;;4.75;1.80;;;15.70;99.90;;;;;;5102482;27;20213;-80
2022/05/23 13:29:39;;;;;;;6.40;2.20;;;15.60;99.90;;;;;;5102603;28;20198;-81
2022/05/23 13:32:16;;;;;;;4.75;1.88;;;15.60;99.90;;;;;;5102545;28;20191;-78
2022/05/23 13:34:48;;;;;;;5.50;2.15;;;15.60;99.90;;;;;;5102357;27;21208;-79
2022/05/23 13:37:30;;;;;;;4.38;2.10;;;15.60;99.90;;;;;;5100273;27;20213;-80
2022/05/23 13:40:11;;;;;;;4.90;2.10;;;15.60;99.90;;;;;;5105755;27;20616;-78
2022/05/23 13:42:44;;;;;;;2.95;1.95;;;15.60;99.90;;;;;;5104520;27;20206;-78
2022/05/23 13:45:17;;;;;;;4.70;1.80;;;15.60;99.90;;;;;;5102909;27;20195;-78
2022/05/23 13:47:52;;;;;;;4.32;2.10;;;15.50;99.90;;;;;;5106912;27;20240;-80
2022/05/23 13:50:26;;;;;;;3.55;1.92;;;15.60;99.90;;;;;;5105500;27;20198;-79
2022/05/23 13:53:00;;;;;;;3.83;2.15;;;15.50;99.90;;;;;;5103756;27;20201;-78
2022/05/23 13:55:33;;;;;;;3.10;1.98;;;15.50;99.90;;;;;;5103755;27;20194;-78
2022/05/23 13:58:11;;;;;;;4.80;1.88;;;15.50;99.90;;;;;;5099193;27;20191;-80
2022/05/23 14:00:43;;;;;;;4.35;2.15;;;15.40;99.90;;;;;;5101381;27;20690;-79
2022/05/23 14:03:18;;;;;;;3.45;1.75;;;15.40;99.90;;;;;;5103226;27;20217;-79
2022/05/23 14:05:52;;;;;;;3.70;1.70;;;15.30;99.90;;;;;;5100512;27;20206;-78
2022/05/23 14:08:33;;;;;;;3.28;1.90;;;15.30;99.90;;;;;;5102885;27;20213;-79
2022/05/23 14:11:06;;;;;;;2.95;1.80;;;15.40;99.90;;;;;;5104460;27;20218;-79
2022/05/23 14:13:39;;;;;;;5.55;2.28;;;15.40;99.90;;;;;;5103696;27;20870;-78
2022/05/23 14:16:17;;;;;;;3.72;1.95;;;15.40;99.90;;;;;;5102605;28;20233;-79
2022/05/23 14:19:02;;;;;;;4.22;1.50;;;15.40;99.90;;;;;;5101219;27;20217;-78
2022/05/23 14:21:37;;;;;;;3.83;1.98;;;15.40;99.90;;;;;;5099668;27;20708;-80
2022/05/23 14:24:18;;;;;;;4.95;1.52;;;15.40;99.90;;;;;;5100515;27;20206;-78
2022/05/23 14:27:05;;;;;;;3.70;1.92;;;15.50;99.90;;;;;;5103356;27;20191;-78
2022/05/23 14:29:38;;;;;;;3.38;1.60;;;15.50;99.90;;;;;;5100227;27;20195;-78
2022/05/23 14:32:16;;;;;;;3.13;1.77;;;15.50;99.90;;;;;;5104100;27;20206;-79
2022/05/23 14:34:47;;;;;;;3.83;1.55;;;15.50;99.90;;;;;;5104708;27;20197;-77
2022/05/23 14:37:23;;;;;;;2.50;1.70;;;15.50;99.90;;;;;;5103649;27;20214;-78
2022/05/23 14:39:55;;;;;;;4.45;1.70;;;15.50;99.90;;;;;;5100198;28;20576;-78
2022/05/23 14:42:29;;;;;;;3.67;1.60;;;15.40;99.90;;;;;;5102727;27;20191;-78
2022/05/23 14:45:29;;;;;;;3.78;1.92;;;15.40;99.90;;;;;;5103228;27;20193;-78
2022/05/23 14:48:15;;;;;;;4.15;1.90;;;15.50;99.90;;;;;;5089089;28;20194;-78